Time;durP1;ratioP1;P1;durP2;ratioP2;P2;SDS_P1;SDS_P2;PMS_P1;PMS_P2;Temp;Humidity;BMP_temperature;BMP_pressure;BME280_temperature;BME280_humidity;BME280_pressure;Samples;Min_cycle;Max_cycle;Signal;HPM_P1;HPM_P2
2024/03/24 00:00:36;;;;;;;;;1.00;1.00;;;;;9.20;61.07;98473.75;6319574;20;1803455;-47
2024/03/24 00:03:04;;;;;;;;;2.00;2.00;;;;;9.17;61.07;98474.00;6322642;20;1807632;-48
2024/03/24 00:05:31;;;;;;;;;1.00;1.00;;;;;9.16;61.28;98465.09;6322306;20;1808805;-47
2024/03/24 00:07:58;;;;;;;;;1.00;1.00;;;;;9.09;61.32;98444.25;6323433;20;1806628;-47
2024/03/24 00:10:25;;;;;;;;;2.00;2.00;;;;;9.12;60.90;98433.31;6308046;20;2737909;-52
2024/03/24 00:12:52;;;;;;;;;3.00;1.00;;;;;9.01;61.65;98415.38;6308068;20;2467981;-45
2024/03/24 00:15:19;;;;;;;;;1.00;1.00;;;;;9.01;61.96;98416.25;6323949;20;1803519;-47
2024/03/24 00:17:46;;;;;;;;;1.00;1.00;;;;;9.08;61.56;98416.59;6323091;20;1807758;-49
2024/03/24 00:20:14;;;;;;;;;0.00;0.00;;;;;8.98;62.25;98408.44;6321867;20;1805551;-47
2024/03/24 00:22:41;;;;;;;;;1.00;1.00;;;;;8.88;61.67;98402.06;6323883;20;1813706;-50
2024/03/24 00:25:09;;;;;;;;;2.00;2.00;;;;;8.99;61.39;98411.97;6321032;20;1807711;-46
2024/03/24 00:27:36;;;;;;;;;4.00;1.00;;;;;8.94;61.20;98425.69;6323459;20;1807753;-48
2024/03/24 00:30:05;;;;;;;;;3.00;2.00;;;;;8.85;62.31;98421.03;6320370;20;1805627;-52
2024/03/24 00:32:31;;;;;;;;;2.00;2.00;;;;;8.79;61.88;98422.38;6305910;20;2752394;-49
2024/03/24 00:34:59;;;;;;;;;1.75;1.00;;;;;8.73;62.26;98422.78;6288844;20;1803442;-48
2024/03/24 00:37:26;;;;;;;;;1.00;1.00;;;;;8.77;61.92;98426.13;6325078;20;1801398;-48
2024/03/24 00:39:53;;;;;;;;;2.25;2.25;;;;;8.70;62.36;98438.25;6321471;20;1814055;-50
2024/03/24 00:42:21;;;;;;;;;3.00;3.00;;;;;8.84;61.87;98464.81;6323136;20;1809772;-46
2024/03/24 00:44:48;;;;;;;;;2.00;2.00;;;;;8.75;63.18;98481.56;6321934;20;1811659;-47
2024/03/24 00:47:15;;;;;;;;;4.00;2.00;;;;;8.78;62.63;98481.34;6306216;20;2756620;-49
2024/03/24 00:49:42;;;;;;;;;2.25;1.75;;;;;8.73;63.25;98491.53;6292097;20;1810773;-48
2024/03/24 00:52:08;;;;;;;;;3.00;2.00;;;;;8.76;63.73;98493.97;6306813;20;2748184;-49
2024/03/24 00:54:35;;;;;;;;;1.00;1.00;;;;;8.62;63.13;98499.50;6273305;20;2744183;-50
2024/03/24 00:57:01;;;;;;;;;3.00;2.00;;;;;8.65;63.44;98499.25;6274634;20;2742999;-48
2024/03/24 00:59:28;;;;;;;;;2.50;2.00;;;;;8.73;62.58;98499.56;6272626;20;2748275;-49
2024/03/24 01:01:55;;;;;;;;;1.50;1.50;;;;;8.63;63.56;98512.72;6291737;20;1805633;-46
2024/03/24 01:04:23;;;;;;;;;1.75;1.00;;;;;8.62;63.81;98521.75;6319195;20;1809741;-47
2024/03/24 01:06:50;;;;;;;;;2.25;2.25;;;;;8.66;63.88;98527.72;6323241;20;1811863;-46
2024/03/24 01:09:16;;;;;;;;;4.00;2.00;;;;;8.69;64.55;98543.53;6305382;20;2750315;-48
2024/03/24 01:11:44;;;;;;;;;2.25;2.25;;;;;8.73;64.14;98556.59;6290960;20;1819925;-47
2024/03/24 01:14:10;;;;;;;;;7.00;3.00;;;;;8.64;65.54;98554.59;6303820;20;2752376;-46
2024/03/24 01:16:37;;;;;;;;;9.50;7.00;;;;;8.73;66.42;98545.03;6272314;20;2750887;-47
2024/03/24 01:19:03;;;;;;;;;3.00;3.00;;;;;8.54;69.97;98541.00;6273656;20;2756566;-46
2024/03/24 01:21:30;;;;;;;;;5.00;5.00;;;;;8.51;73.35;98538.56;6272380;20;2749432;-48
2024/03/24 01:23:58;;;;;;;;;4.00;3.00;;;;;8.51;75.28;98525.19;6272166;20;2749297;-47
2024/03/24 01:26:25;;;;;;;;;5.00;3.00;;;;;8.49;77.38;98521.75;6274665;20;2746163;-46
2024/03/24 01:28:52;;;;;;;;;8.25;4.50;;;;;8.46;79.40;98516.63;6287727;20;1815865;-47
2024/03/24 01:31:19;;;;;;;;;6.00;5.00;;;;;8.31;82.02;98517.69;6306925;20;2745045;-46
2024/03/24 01:33:45;;;;;;;;;3.00;3.00;;;;;8.38;83.41;98529.69;6273793;20;3441958;-47
2024/03/24 01:36:12;;;;;;;;;5.00;5.00;;;;;8.39;84.27;98525.19;6274671;20;2742005;-46
2024/03/24 01:38:39;;;;;;;;;7.25;5.00;;;;;8.39;84.54;98530.53;6290478;20;1814006;-50
2024/03/24 01:41:09;;;;;;;;;5.67;5.67;;;;;8.33;85.90;98532.66;6347298;20;1796166;-48
2024/03/24 01:43:35;;;;;;;;;10.50;7.50;;;;;8.31;85.56;98539.94;6277968;20;2751327;-49
2024/03/24 01:46:04;;;;;;;;;7.60;7.40;;;;;8.29;85.91;98547.25;6303304;20;2748886;-50
2024/03/24 01:48:31;;;;;;;;;9.00;8.50;;;;;8.40;85.19;98549.19;6308836;20;2754552;-49
2024/03/24 01:50:58;;;;;;;;;10.00;6.00;;;;;8.44;85.33;98548.00;6277249;20;2769093;-49
2024/03/24 01:53:25;;;;;;;;;6.00;6.00;;;;;8.10;87.20;98547.66;6279116;20;2735827;-47
2024/03/24 01:55:52;;;;;;;;;5.50;5.50;;;;;8.26;86.81;98538.56;6276645;20;2731537;-48
2024/03/24 01:58:18;;;;;;;;;11.00;7.50;;;;;8.12;87.11;98532.38;6308816;20;2759720;-46
2024/03/24 02:00:48;;;;;;;;;9.00;7.33;;;;;8.28;87.03;98539.31;6319022;20;1804640;-48
2024/03/24 02:03:16;;;;;;;;;6.00;6.00;;;;;8.34;86.77;98545.06;6295817;20;1812861;-48
2024/03/24 02:05:42;;;;;;;;;9.00;9.00;;;;;8.22;86.39;98531.72;6306667;20;2759655;-48
2024/03/24 02:08:11;;;;;;;;;10.40;8.00;;;;;8.38;86.13;98529.69;6300994;20;2764874;-47
2024/03/24 02:10:37;;;;;;;;;8.00;8.00;;;;;8.18;87.36;98520.38;6278438;20;2748787;-51
2024/03/24 02:13:04;;;;;;;;;10.00;6.00;;;;;8.10;87.79;98525.41;6274737;20;2769094;-50
2024/03/24 02:15:32;;;;;;;;;10.60;7.80;;;;;8.35;86.86;98535.25;6299776;20;2759659;-47
2024/03/24 02:17:59;;;;;;;;;7.00;7.00;;;;;8.10;88.92;98541.47;6277511;20;2742989;-46
2024/03/24 02:20:26;;;;;;;;;7.50;6.25;;;;;8.10;88.59;98555.66;6294859;20;1807678;-47
2024/03/24 02:22:53;;;;;;;;;8.00;8.00;;;;;8.11;89.70;98543.19;6309409;20;2740914;-48
2024/03/24 02:25:20;;;;;;;;;4.00;4.00;;;;;8.04;89.98;98550.75;6324939;20;1809175;-52
2024/03/24 02:27:49;;;;;;;;;8.80;8.80;;;;;7.91;90.72;98553.41;6329496;20;2752355;-48
2024/03/24 02:30:15;;;;;;;;;11.00;10.00;;;;;8.03;91.04;98546.38;6305243;20;2791991;-47
2024/03/24 02:32:45;;;;;;;;;16.00;11.00;;;;;7.91;91.51;98552.56;6274468;20;2788911;-48
2024/03/24 02:35:13;;;;;;;;;12.00;12.00;;;;;7.90;93.18;98558.88;6275786;20;2806637;-48
2024/03/24 02:37:39;;;;;;;;;17.00;13.50;;;;;7.99;92.21;98560.91;6306146;20;2819065;-49
2024/03/24 02:40:11;;;;;;;;;11.33;11.33;;;;;7.87;93.47;98578.66;6275044;20;2806619;-47
2024/03/24 02:42:38;;;;;;;;;12.00;12.00;;;;;7.84;94.67;98588.69;6305600;20;2789939;-50
2024/03/24 02:45:06;;;;;;;;;11.00;11.00;;;;;7.74;94.90;98582.25;6275479;20;2785711;-47
2024/03/24 02:47:35;;;;;;;;;11.60;11.60;;;;;7.85;94.51;98574.38;6300412;20;2802416;-47
2024/03/24 02:50:03;;;;;;;;;12.60;11.00;;;;;7.81;94.36;98578.22;6300973;20;2786838;-47
2024/03/24 02:52:31;;;;;;;;;13.00;10.67;;;;;7.88;94.16;98574.16;6275573;20;2791974;-47
2024/03/24 02:55:00;;;;;;;;;18.17;15.17;;;;;7.94;94.27;98580.91;6329454;20;2828490;-50
2024/03/24 02:57:27;;;;;;;;;16.00;14.50;;;;;7.74;95.55;98590.25;6306698;20;2814382;-47
2024/03/24 02:59:54;;;;;;;;;17.00;15.00;;;;;7.80;95.33;98597.88;6281283;20;2813963;-48
2024/03/24 03:02:20;;;;;;;;;15.00;15.00;;;;;7.87;95.09;98589.34;6275445;20;2802428;-47
2024/03/24 03:04:47;;;;;;;;;18.00;16.00;;;;;7.76;96.26;98588.34;6276952;20;2813886;-46
2024/03/24 03:07:13;;;;;;;;;20.50;17.50;;;;;7.64;97.35;98588.22;6274259;20;2827393;-48
2024/03/24 03:09:40;;;;;;;;;17.50;17.50;;;;;7.78;96.92;98583.78;6279200;20;2821285;-46
2024/03/24 03:12:07;;;;;;;;;17.33;15.00;;;;;7.62;97.82;98576.78;6274111;20;3535736;-48
2024/03/24 03:14:34;;;;;;;;;22.00;20.00;;;;;7.56;98.55;98579.03;6302327;20;2496205;-47
2024/03/24 03:17:01;;;;;;;;;16.00;13.67;;;;;7.53;98.64;98580.09;6274843;20;3547244;-48
2024/03/24 03:19:29;;;;;;;;;22.00;17.67;;;;;7.57;98.78;98570.03;6272368;20;3559613;-47
2024/03/24 03:21:56;;;;;;;;;17.67;16.00;;;;;7.69;98.02;98553.19;6305224;20;3553408;-49
2024/03/24 03:24:24;;;;;;;;;16.67;14.00;;;;;7.50;98.48;98564.25;6303262;20;3545046;-53
2024/03/24 03:26:52;;;;;;;;;13.40;13.40;;;;;7.52;99.61;98585.53;6328889;20;2796137;-46
2024/03/24 03:29:20;;;;;;;;;16.67;13.00;;;;;7.59;99.16;98590.34;6275556;20;3539850;-48
2024/03/24 03:31:46;;;;;;;;;23.50;15.50;;;;;7.54;99.87;98579.13;6275884;20;2836882;-50
2024/03/24 03:34:14;;;;;;;;;14.33;13.33;;;;;7.42;100.00;98574.59;6270373;20;3525282;-50
2024/03/24 03:36:41;;;;;;;;;17.00;14.00;;;;;7.50;100.00;98574.94;6306360;20;2815929;-48
2024/03/24 03:39:08;;;;;;;;;14.67;12.33;;;;;7.44;100.00;98594.03;6274802;20;3533717;-45
2024/03/24 03:41:35;;;;;;;;;15.00;15.00;;;;;7.36;100.00;98594.53;6308075;20;2806558;-50
2024/03/24 03:44:01;;;;;;;;;18.00;17.00;;;;;7.39;100.00;98602.34;6279036;20;2817044;-48
2024/03/24 03:46:28;;;;;;;;;15.00;10.00;;;;;7.36;100.00;98604.38;6273082;20;2794010;-46
2024/03/24 03:48:55;;;;;;;;;17.00;14.67;;;;;7.42;100.00;98591.47;6274102;20;3548207;-46
2024/03/24 03:51:37;;;;;;;;;14.00;12.00;;;;;7.38;100.00;98571.28;6304922;20;3537834;-47
2024/03/24 03:54:06;;;;;;;;;17.67;16.33;;;;;7.20;100.00;98568.00;6305029;20;2813320;-49
2024/03/24 03:56:33;;;;;;;;;16.00;15.00;;;;;7.18;100.00;98559.22;6306463;20;2819058;-48
2024/03/24 03:58:59;;;;;;;;;17.00;15.00;;;;;7.12;100.00;98548.97;6275774;20;2811558;-48
2024/03/24 04:01:26;;;;;;;;;16.00;15.00;;;;;7.13;100.00;98536.47;6272651;20;2805607;-48
2024/03/24 04:03:53;;;;;;;;;14.00;14.00;;;;;7.19;100.00;98525.41;6271333;20;2807580;-50
2024/03/24 04:06:20;;;;;;;;;14.67;14.67;;;;;7.28;100.00;98510.59;6273499;20;3535133;-47
2024/03/24 04:08:48;;;;;;;;;18.00;17.00;;;;;7.21;100.00;98508.34;6304815;20;3543005;-47
2024/03/24 04:11:14;;;;;;;;;16.50;12.50;;;;;7.04;100.00;98497.91;6307000;20;2802367;-46
2024/03/24 04:13:42;;;;;;;;;18.67;14.00;;;;;7.09;100.00;98505.63;6273242;20;2814029;-46
2024/03/24 04:16:10;;;;;;;;;16.67;15.67;;;;;7.11;100.00;98509.03;6303804;20;3555885;-47
2024/03/24 04:18:37;;;;;;;;;14.50;12.00;;;;;7.05;100.00;98512.97;6309011;20;2792021;-48
2024/03/24 04:21:04;;;;;;;;;16.67;15.00;;;;;7.16;100.00;98530.94;6273502;20;3543073;-51
2024/03/24 04:23:31;;;;;;;;;20.00;16.00;;;;;7.23;100.00;98549.09;6304644;20;2815057;-54
2024/03/24 04:25:58;;;;;;;;;16.00;14.33;;;;;7.08;100.00;98555.44;6272994;20;2808775;-51
2024/03/24 04:28:27;;;;;;;;;14.60;12.40;;;;;7.02;100.00;98554.03;6329023;20;2800418;-49
2024/03/24 04:30:53;;;;;;;;;11.50;11.50;;;;;7.02;100.00;98553.19;6273308;20;2794039;-49
2024/03/24 04:33:21;;;;;;;;;16.33;11.67;;;;;7.06;100.00;98554.72;6272414;20;3523191;-49
2024/03/24 04:35:48;;;;;;;;;13.50;13.50;;;;;7.01;100.00;98562.16;6305626;20;2799338;-52
2024/03/24 04:38:18;;;;;;;;;13.80;12.80;;;;;6.97;100.00;98563.31;6298847;20;2797285;-51
2024/03/24 04:40:46;;;;;;;;;13.67;13.67;;;;;7.15;99.61;98575.44;6273630;20;2789995;-51
2024/03/24 04:43:15;;;;;;;;;13.33;12.67;;;;;7.13;99.34;98582.69;6304750;20;2790892;-48
2024/03/24 04:45:45;;;;;;;;;10.00;10.00;;;;;7.05;98.91;98585.00;6301108;20;2786770;-49
2024/03/24 04:48:12;;;;;;;;;16.00;12.33;;;;;7.16;98.47;98593.19;6274031;20;2800291;-49
2024/03/24 04:50:40;;;;;;;;;14.33;13.00;;;;;7.23;98.63;98597.16;6302304;20;3542946;-46
2024/03/24 04:53:06;;;;;;;;;17.00;12.50;;;;;7.08;99.12;98613.31;6301367;20;2823231;-48
2024/03/24 04:55:35;;;;;;;;;14.40;10.20;;;;;7.10;97.82;98614.94;6296312;20;2801379;-47
2024/03/24 04:58:03;;;;;;;;;20.67;20.67;;;;;7.12;98.09;98622.84;6271090;20;3566922;-46
2024/03/24 05:00:30;;;;;;;;;13.00;13.00;;;;;7.12;97.33;98618.38;6275475;20;2802374;-46
2024/03/24 05:02:56;;;;;;;;;11.50;11.50;;;;;7.08;97.40;98616.84;6273286;20;2796157;-48
2024/03/24 05:05:25;;;;;;;;;15.20;14.00;;;;;7.02;97.10;98617.25;6295077;20;2793044;-48
2024/03/24 05:07:52;;;;;;;;;11.00;11.00;;;;;7.08;96.04;98616.84;6273975;20;2791019;-49
2024/03/24 05:10:19;;;;;;;;;12.00;12.00;;;;;7.06;96.15;98600.09;6303845;20;2807593;-50
2024/03/24 05:12:47;;;;;;;;;14.67;12.33;;;;;7.02;95.63;98595.91;6272622;20;2794075;-47
2024/03/24 05:15:14;;;;;;;;;11.00;11.00;;;;;7.11;94.20;98600.66;6300938;20;2791972;-49
2024/03/24 05:17:42;;;;;;;;;11.00;11.00;;;;;7.06;94.76;98597.41;6278523;20;2788911;-47
2024/03/24 05:20:11;;;;;;;;;13.00;12.00;;;;;7.35;93.28;98583.97;6302701;20;2789870;-49
2024/03/24 05:22:39;;;;;;;;;10.00;10.00;;;;;7.25;94.34;98589.91;6278665;20;2783664;-48
2024/03/24 05:25:08;;;;;;;;;10.00;9.00;;;;;7.14;94.96;98581.75;6304065;20;2777477;-48
2024/03/24 05:27:36;;;;;;;;;10.80;10.00;;;;;7.23;92.96;98590.97;6302695;20;2794136;-48
2024/03/24 05:30:04;;;;;;;;;10.00;10.00;;;;;7.29;92.79;98603.06;6277587;20;2784634;-46
2024/03/24 05:32:30;;;;;;;;;11.50;11.00;;;;;7.19;92.60;98603.69;6277549;20;2787800;-46
2024/03/24 05:34:57;;;;;;;;;10.00;10.00;;;;;7.20;92.00;98618.72;6278420;20;2778474;-47
2024/03/24 05:37:24;;;;;;;;;11.67;10.67;;;;;7.29;90.27;98624.41;6278677;20;2787748;-47
2024/03/24 05:39:51;;;;;;;;;4.00;4.00;;;;;7.17;89.97;98626.09;6309154;20;2747156;-45
2024/03/24 05:42:17;;;;;;;;;9.00;9.00;;;;;7.20;90.63;98632.06;6309084;20;2744152;-47
2024/03/24 05:44:44;;;;;;;;;9.00;9.00;;;;;7.41;87.52;98631.63;6276187;20;2736167;-50
2024/03/24 05:47:10;;;;;;;;;10.00;8.00;;;;;7.43;86.77;98632.41;6309008;20;2757680;-47
2024/03/24 05:49:37;;;;;;;;;11.00;11.00;;;;;7.18;87.52;98625.97;6275921;20;2798249;-48
2024/03/24 05:52:05;;;;;;;;;9.75;8.50;;;;;7.28;87.80;98641.41;6295489;20;1806606;-51
2024/03/24 05:54:32;;;;;;;;;7.50;7.50;;;;;7.57;85.73;98656.38;6308623;20;2740897;-46
2024/03/24 05:56:58;;;;;;;;;8.50;7.00;;;;;7.40;85.51;98653.97;6279380;20;2746229;-47
2024/03/24 05:59:27;;;;;;;;;9.00;8.00;;;;;7.43;85.11;98653.75;6320262;20;1798264;-49
2024/03/24 06:01:55;;;;;;;;;7.50;7.25;;;;;7.35;84.74;98648.06;6295746;20;1805554;-48
2024/03/24 06:04:22;;;;;;;;;7.25;6.75;;;;;7.33;85.29;98652.66;6324575;20;1819181;-47
2024/03/24 06:06:49;;;;;;;;;4.50;4.50;;;;;7.37;84.42;98662.16;6311254;20;2734672;-49
2024/03/24 06:09:17;;;;;;;;;10.50;9.50;;;;;7.40;84.01;98665.50;6307712;20;2783626;-46
2024/03/24 06:11:43;;;;;;;;;9.00;9.00;;;;;7.49;83.73;98661.38;6278140;20;2750259;-48
2024/03/24 06:14:12;;;;;;;;;14.60;14.20;;;;;7.58;83.35;98658.09;6300387;20;2791001;-47
2024/03/24 06:16:40;;;;;;;;;8.50;8.50;;;;;7.52;82.70;98663.81;6278606;20;2744029;-47
2024/03/24 06:19:07;;;;;;;;;9.00;7.25;;;;;7.48;82.37;98673.88;6327762;20;1811683;-47
2024/03/24 06:21:34;;;;;;;;;4.50;4.50;;;;;7.59;83.35;98675.84;6310963;20;2747126;-48
2024/03/24 06:24:00;;;;;;;;;6.00;6.00;;;;;7.54;81.97;98669.94;6278887;20;2739863;-48
2024/03/24 06:26:27;;;;;;;;;5.00;5.00;;;;;7.55;81.63;98678.78;6308846;20;2747189;-46
2024/03/24 06:28:53;;;;;;;;;11.00;8.00;;;;;7.69;80.68;98690.31;6277881;20;2752397;-51
2024/03/24 06:31:20;;;;;;;;;9.00;7.00;;;;;7.80;80.02;98707.44;6278303;20;2748220;-48
2024/03/24 06:33:46;;;;;;;;;9.00;8.00;;;;;7.98;78.83;98714.25;6278205;20;2750317;-49
2024/03/24 06:36:13;;;;;;;;;8.00;8.00;;;;;7.80;79.38;98715.47;6279017;20;2736782;-49
2024/03/24 06:38:41;;;;;;;;;5.00;5.00;;;;;7.69;80.54;98717.03;6331582;20;2748219;-50
2024/03/24 06:41:08;;;;;;;;;9.00;6.00;;;;;7.77;79.79;98726.34;6308447;20;2745128;-46
2024/03/24 06:43:42;;;;;;;;;8.50;6.00;;;;;7.94;79.02;98736.78;6274979;20;2748200;-46
2024/03/24 06:46:10;;;;;;;;;6.60;6.40;;;;;7.70;80.39;98740.09;6302740;20;2737814;-46
2024/03/24 06:48:37;;;;;;;;;6.00;6.00;;;;;7.88;81.45;98747.88;6307980;20;2745206;-46
2024/03/24 06:51:04;;;;;;;;;9.00;8.00;;;;;7.84;82.19;98749.88;6276561;20;2735680;-47
2024/03/24 06:53:32;;;;;;;;;6.00;5.00;;;;;7.69;81.58;98738.38;6326057;20;1807754;-50
2024/03/24 06:55:58;;;;;;;;;6.50;6.50;;;;;7.98;82.23;98748.09;6307180;20;2743016;-48
2024/03/24 06:58:25;;;;;;;;;4.00;4.00;;;;;8.06;80.66;98740.47;6278316;20;2750511;-49
2024/03/24 07:00:55;;;;;;;;;7.50;5.50;;;;;8.12;79.08;98748.91;6275945;20;2741962;-47
2024/03/24 07:03:22;;;;;;;;;6.50;5.50;;;;;8.19;78.35;98745.81;6277229;20;2745148;-47
2024/03/24 07:05:49;;;;;;;;;6.00;6.00;;;;;8.29;78.17;98736.22;6277477;20;2742413;-48
2024/03/24 07:08:16;;;;;;;;;5.50;5.50;;;;;8.11;77.37;98731.19;6312393;20;2745102;-46
2024/03/24 07:10:43;;;;;;;;;7.00;7.00;;;;;8.54;75.67;98736.31;6326681;20;1806798;-48
2024/03/24 07:13:10;;;;;;;;;9.00;5.00;;;;;8.77;74.11;98740.09;6310188;20;2739906;-50
2024/03/24 07:15:37;;;;;;;;;6.25;5.25;;;;;8.77;74.80;98741.91;6324434;20;1812961;-48
2024/03/24 07:18:04;;;;;;;;;5.50;5.50;;;;;9.29;71.61;98746.25;6311654;20;2728387;-51
2024/03/24 07:20:32;;;;;;;;;5.00;5.00;;;;;8.70;72.28;98737.94;6325741;20;1805712;-48
2024/03/24 07:22:58;;;;;;;;;7.00;5.00;;;;;8.90;71.30;98750.81;6310002;20;2745155;-46
2024/03/24 07:25:25;;;;;;;;;7.50;6.25;;;;;9.19;69.38;98739.88;6292789;20;1816133;-47
2024/03/24 07:27:52;;;;;;;;;6.00;6.00;;;;;9.16;69.20;98740.94;6309961;20;2744108;-48
2024/03/24 07:30:18;;;;;;;;;5.00;5.00;;;;;9.54;67.36;98739.16;6278817;20;2733623;-46
2024/03/24 07:32:45;;;;;;;;;6.50;6.00;;;;;9.81;65.42;98736.25;6291877;20;2738027;-47
2024/03/24 07:35:11;;;;;;;;;6.00;6.00;;;;;9.78;65.42;98740.03;6278243;20;2738837;-46
2024/03/24 07:37:38;;;;;;;;;8.50;7.00;;;;;9.70;65.52;98723.66;6310531;20;2744146;-49
2024/03/24 07:40:07;;;;;;;;;7.50;6.00;;;;;9.77;64.22;98735.63;6290438;20;1806466;-48
2024/03/24 07:42:34;;;;;;;;;4.00;4.00;;;;;9.62;63.93;98723.38;6311875;20;2753404;-45
2024/03/24 07:45:02;;;;;;;;;7.00;5.00;;;;;9.50;63.99;98726.94;6295678;20;1813338;-49
2024/03/24 07:47:29;;;;;;;;;6.00;4.00;;;;;9.68;64.08;98720.22;6311238;20;2743012;-46
2024/03/24 07:49:55;;;;;;;;;7.50;5.50;;;;;10.10;63.18;98726.91;6281883;20;2736762;-49
2024/03/24 07:52:22;;;;;;;;;5.00;5.00;;;;;9.78;62.74;98721.25;6280361;20;2747260;-51
2024/03/24 07:54:48;;;;;;;;;5.00;4.00;;;;;10.04;62.56;98724.69;6278669;20;2753440;-49
2024/03/24 07:57:15;;;;;;;;;6.00;6.00;;;;;10.68;60.90;98721.63;6279078;20;2736914;-47
2024/03/24 07:59:41;;;;;;;;;6.00;5.00;;;;;10.18;61.99;98720.09;6292761;20;2745089;-49
2024/03/24 08:02:09;;;;;;;;;7.00;6.00;;;;;10.41;60.89;98718.41;6281390;20;2736752;-48
2024/03/24 08:04:36;;;;;;;;;5.00;5.00;;;;;10.65;60.03;98719.19;6279365;20;2742054;-47
2024/03/24 08:07:03;;;;;;;;;8.00;6.00;;;;;10.76;58.57;98713.84;6280624;20;2741991;-47
2024/03/24 08:09:29;;;;;;;;;7.00;5.50;;;;;11.02;58.96;98716.31;6279574;20;2738871;-51
2024/03/24 08:11:56;;;;;;;;;5.00;5.00;;;;;10.61;58.47;98715.03;6282425;20;2730528;-47
2024/03/24 08:14:26;;;;;;;;;4.71;4.71;;;;;10.85;57.83;98722.13;6320644;20;1793511;-46
2024/03/24 08:16:54;;;;;;;;;4.00;3.00;;;;;10.83;56.86;98724.13;6311192;20;2754555;-46
2024/03/24 08:19:21;;;;;;;;;6.00;6.00;;;;;10.70;55.66;98714.31;6281884;20;2743110;-48
2024/03/24 08:21:47;;;;;;;;;6.50;4.00;;;;;11.27;56.17;98717.03;6276854;20;2745213;-47
2024/03/24 08:24:14;;;;;;;;;4.00;4.00;;;;;10.50;56.13;98717.69;6275577;20;2756638;-46
2024/03/24 08:26:40;;;;;;;;;3.50;3.50;;;;;11.01;55.44;98719.97;6281203;20;2744066;-46
2024/03/24 08:29:07;;;;;;;;;3.00;3.00;;;;;11.30;54.21;98722.19;6280624;20;2736144;-46
2024/03/24 08:31:33;;;;;;;;;3.50;3.50;;;;;11.43;53.49;98720.22;6280386;20;2754433;-46
2024/03/24 08:34:00;;;;;;;;;3.00;3.00;;;;;11.81;52.86;98713.53;6278815;20;2740926;-54
2024/03/24 08:36:26;;;;;;;;;3.50;3.50;;;;;11.67;52.13;98713.84;6282067;20;2747259;-50
2024/03/24 08:38:53;;;;;;;;;5.00;3.00;;;;;12.31;50.65;98716.56;6279247;20;2736747;-46
2024/03/24 08:41:20;;;;;;;;;4.00;3.00;;;;;12.31;50.69;98713.88;6280374;20;2734704;-49
2024/03/24 08:43:47;;;;;;;;;3.00;3.00;;;;;11.53;51.28;98713.13;6294796;20;1796349;-51
2024/03/24 08:46:14;;;;;;;;;3.50;2.50;;;;;11.97;51.35;98716.69;6311428;20;2738814;-46
2024/03/24 08:48:41;;;;;;;;;3.00;3.00;;;;;12.39;49.93;98713.25;6296506;20;1803544;-47
2024/03/24 08:51:08;;;;;;;;;2.00;2.00;;;;;11.86;49.75;98708.69;6310266;20;2750377;-48
2024/03/24 08:53:34;;;;;;;;;3.00;3.00;;;;;11.86;50.58;98722.13;6279364;20;2736738;-48
2024/03/24 08:56:03;;;;;;;;;4.00;3.00;;;;;12.17;50.77;98711.50;6293987;20;1805660;-48
2024/03/24 08:58:30;;;;;;;;;2.50;2.50;;;;;11.76;51.42;98713.91;6311996;20;2742071;-47
2024/03/24 09:00:56;;;;;;;;;4.00;2.50;;;;;11.90;50.88;98714.66;6278072;20;2748301;-49
2024/03/24 09:03:23;;;;;;;;;5.00;3.00;;;;;12.57;50.84;98724.28;6278542;20;2746116;-47
2024/03/24 09:05:50;;;;;;;;;3.00;2.00;;;;;12.57;49.94;98724.28;6293909;20;1795179;-47
2024/03/24 09:08:16;;;;;;;;;4.50;3.00;;;;;12.29;49.84;98721.22;6280807;20;2746227;-51
2024/03/24 09:10:43;;;;;;;;;3.00;3.00;;;;;12.50;49.27;98719.41;6279243;20;2738822;-46
2024/03/24 09:13:09;;;;;;;;;3.00;3.00;;;;;11.92;49.40;98729.69;6279036;20;2737899;-47
2024/03/24 09:15:37;;;;;;;;;7.00;7.00;;;;;11.82;49.45;98721.50;6300020;20;2746174;-46
2024/03/24 09:18:04;;;;;;;;;6.00;6.00;;;;;12.07;49.54;98722.19;6310946;20;2740884;-47
2024/03/24 09:20:31;;;;;;;;;4.00;3.00;;;;;11.72;49.62;98714.31;6280137;20;2748222;-48
2024/03/24 09:22:57;;;;;;;;;3.50;3.00;;;;;12.28;49.51;98722.22;6279646;20;2733643;-48
2024/03/24 09:25:24;;;;;;;;;5.00;5.00;;;;;12.21;48.53;98712.94;6275616;20;2747223;-47
2024/03/24 09:27:51;;;;;;;;;6.00;3.00;;;;;13.14;48.31;98712.16;6297511;20;1811615;-46
2024/03/24 09:30:20;;;;;;;;;1.00;1.00;;;;;12.73;46.45;98717.44;6310106;20;2735872;-47
2024/03/24 09:32:47;;;;;;;;;3.50;2.00;;;;;12.15;48.16;98708.09;6278807;20;2745068;-45
2024/03/24 09:35:14;;;;;;;;;3.00;2.00;;;;;13.53;46.75;98725.81;6276070;20;2739859;-45
2024/03/24 09:37:40;;;;;;;;;3.00;3.00;;;;;12.91;46.28;98706.94;6279125;20;2739909;-48
2024/03/24 09:40:09;;;;;;;;;6.00;4.00;;;;;13.00;44.92;98715.19;6278423;20;2750298;-45
2024/03/24 09:42:36;;;;;;;;;3.00;3.00;;;;;12.47;46.08;98706.22;6280934;20;2727922;-45
2024/03/24 09:45:04;;;;;;;;;12.00;5.00;;;;;13.04;45.94;98695.94;6275157;20;2770093;-45
2024/03/24 09:47:33;;;;;;;;;5.50;5.00;;;;;13.42;45.49;98698.94;6273644;20;2745076;-50
2024/03/24 09:50:01;;;;;;;;;4.00;3.00;;;;;13.50;45.40;98696.41;6279412;20;2739935;-51
2024/03/24 09:52:30;;;;;;;;;4.00;3.00;;;;;13.00;45.99;98704.41;6279809;20;2737821;-46
2024/03/24 09:54:57;;;;;;;;;3.00;3.00;;;;;12.14;45.48;98695.59;6275604;20;2741991;-48
2024/03/24 09:57:35;;;;;;;;;5.00;5.00;;;;;12.72;45.52;98698.75;6278330;20;2748206;-48
2024/03/24 10:00:05;;;;;;;;;3.00;2.00;;;;;12.74;46.43;98702.13;6277046;20;2752395;-48
2024/03/24 10:02:32;;;;;;;;;2.00;2.00;;;;;12.80;46.60;98693.53;6281363;20;2754562;-46
2024/03/24 10:04:59;;;;;;;;;3.00;3.00;;;;;13.50;46.15;98691.03;6285966;20;2745082;-46
2024/03/24 10:07:26;;;;;;;;;2.50;2.50;;;;;11.82;48.78;98691.91;6285105;20;2745497;-46
2024/03/24 10:09:53;;;;;;;;;2.25;2.25;;;;;11.62;49.34;98690.00;6301515;20;1800374;-47
2024/03/24 10:12:20;;;;;;;;;3.00;3.00;;;;;11.58;48.79;98689.38;6314823;20;2742037;-49
2024/03/24 10:14:46;;;;;;;;;5.00;5.00;;;;;11.26;50.34;98685.78;6283127;20;2748230;-47
2024/03/24 10:17:19;;;;;;;;;4.50;4.50;;;;;11.10;49.09;98686.16;6281635;20;2746110;-46
2024/03/24 10:19:49;;;;;;;;;5.00;5.00;;;;;11.89;46.91;98686.06;6283144;20;2745112;-47
2024/03/24 10:22:16;;;;;;;;;5.50;4.00;;;;;12.76;45.07;98694.78;6281878;20;2746143;-46
2024/03/24 10:24:46;;;;;;;;;2.00;2.00;;;;;12.74;43.48;98681.47;6278096;20;2744027;-50
2024/03/24 10:27:13;;;;;;;;;3.00;1.50;;;;;13.29;42.89;98683.84;6283163;20;2738879;-47
2024/03/24 10:29:40;;;;;;;;;3.00;1.00;;;;;13.36;43.57;98682.31;6282505;20;2741996;-46
2024/03/24 10:32:10;;;;;;;;;2.00;2.00;;;;;13.72;43.42;98669.22;6282172;20;2741970;-47
2024/03/24 10:34:40;;;;;;;;;2.00;2.00;;;;;13.93;41.86;98674.50;6282414;20;2744347;-47
2024/03/24 10:37:09;;;;;;;;;6.00;4.50;;;;;13.19;42.22;98666.75;6277591;20;2756552;-46
2024/03/24 10:39:39;;;;;;;;;2.00;2.00;;;;;12.13;43.78;98677.75;6284603;20;2730491;-46
2024/03/24 10:42:09;;;;;;;;;2.75;2.75;;;;;12.42;43.72;98669.91;6300236;20;1790808;-46
2024/03/24 10:44:36;;;;;;;;;3.50;3.00;;;;;11.69;44.40;98671.53;6314293;20;2735713;-46
2024/03/24 10:47:04;;;;;;;;;6.50;2.00;;;;;12.85;43.09;98658.97;6282892;20;2729437;-49
2024/03/24 10:49:34;;;;;;;;;3.00;2.00;;;;;12.45;43.53;98659.75;6282091;20;2745112;-46
2024/03/24 10:52:05;;;;;;;;;5.00;3.00;;;;;12.70;43.32;98663.00;6281307;20;2744049;-46
2024/03/24 10:54:33;;;;;;;;;4.00;2.00;;;;;13.47;41.94;98646.31;6281804;20;2752779;-50
2024/03/24 10:57:05;;;;;;;;;3.00;3.00;;;;;13.88;40.91;98647.09;6282387;20;2737859;-48
2024/03/24 10:59:32;;;;;;;;;2.00;2.00;;;;;13.35;41.98;98645.59;6283166;20;2729549;-47
2024/03/24 11:02:00;;;;;;;;;3.00;3.00;;;;;13.13;41.87;98648.44;6282525;20;2744032;-47
2024/03/24 11:04:29;;;;;;;;;2.00;2.00;;;;;13.24;42.71;98639.41;6281087;20;2752372;-46
2024/03/24 11:06:56;;;;;;;;;3.00;3.00;;;;;13.87;40.98;98644.53;6282807;20;2756549;-48
2024/03/24 11:09:23;;;;;;;;;4.00;3.00;;;;;13.25;40.90;98638.44;6281310;20;2738812;-51
2024/03/24 11:11:50;;;;;;;;;3.00;3.00;;;;;13.45;41.92;98633.97;6295897;20;1798334;-50
2024/03/24 11:14:17;;;;;;;;;2.00;2.00;;;;;13.18;42.33;98633.56;6313319;20;2722679;-50
2024/03/24 11:16:44;;;;;;;;;6.00;2.50;;;;;12.67;42.94;98622.88;6281897;20;2752335;-48